Time;durP1;ratioP1;P1;durP2;ratioP2;P2;SDS_P1;SDS_P2;PMS_P1;PMS_P2;Temp;Humidity;BMP_temperature;BMP_pressure;BME280_temperature;BME280_humidity;BME280_pressure;Samples;Min_cycle;Max_cycle;Signal;HPM_P1;HPM_P2
2021/03/24 00:01:48;;;;;;;59.22;23.52;;;5.70;99.90;;;;;;5085434;28;20531;-63
2021/03/24 00:04:14;;;;;;;54.38;23.67;;;5.60;99.90;;;;;;5084984;28;20028;-64
2021/03/24 00:06:41;;;;;;;54.42;24.17;;;5.60;99.90;;;;;;5089981;28;20691;-63
2021/03/24 00:09:10;;;;;;;56.92;24.00;;;5.60;99.90;;;;;;5080124;28;20722;-63
2021/03/24 00:11:36;;;;;;;56.83;23.10;;;5.40;99.90;;;;;;5087817;28;20475;-63
2021/03/24 00:14:03;;;;;;;57.45;23.77;;;5.40;99.90;;;;;;5087548;28;20047;-64
2021/03/24 00:16:28;;;;;;;61.00;23.42;;;5.40;99.90;;;;;;5093118;28;20034;-64
2021/03/24 00:18:55;;;;;;;60.53;24.27;;;5.30;99.90;;;;;;5085156;28;20032;-64
2021/03/24 00:21:21;;;;;;;61.83;24.08;;;5.20;99.90;;;;;;5092280;28;20054;-63
2021/03/24 00:23:47;;;;;;;62.33;24.13;;;5.00;99.90;;;;;;5088334;28;20077;-64
2021/03/24 00:26:12;;;;;;;56.20;22.92;;;4.90;99.90;;;;;;5085980;28;20093;-63
2021/03/24 00:28:39;;;;;;;57.63;21.98;;;5.10;99.90;;;;;;5088480;28;20031;-63
2021/03/24 00:31:05;;;;;;;52.47;22.63;;;5.20;99.90;;;;;;5087235;28;20040;-63
2021/03/24 00:33:30;;;;;;;55.35;20.33;;;5.20;99.90;;;;;;5087548;28;20048;-63
2021/03/24 00:35:56;;;;;;;52.58;23.05;;;5.30;99.90;;;;;;5087310;28;20032;-64
2021/03/24 00:38:24;;;;;;;54.38;22.80;;;5.20;99.90;;;;;;5077723;28;20032;-63
2021/03/24 00:40:53;;;;;;;49.55;22.35;;;5.20;99.90;;;;;;5084860;28;20544;-64
2021/03/24 00:43:20;;;;;;;53.97;23.10;;;5.20;99.90;;;;;;5083386;28;20112;-63
2021/03/24 00:45:45;;;;;;;52.78;22.40;;;5.30;99.90;;;;;;5093957;28;20546;-63
2021/03/24 00:48:25;;;;;;;54.75;22.65;;;5.30;99.90;;;;;;5093149;28;20032;-64
2021/03/24 00:50:50;;;;;;;52.78;21.60;;;5.20;99.90;;;;;;5083044;28;20056;-63
2021/03/24 00:53:17;;;;;;;59.55;22.85;;;5.20;99.90;;;;;;5080254;28;20090;-63
2021/03/24 00:55:43;;;;;;;52.67;22.05;;;5.20;99.90;;;;;;5081998;28;20144;-63
2021/03/24 00:58:09;;;;;;;49.40;20.30;;;5.20;99.90;;;;;;5082748;28;20035;-63
2021/03/24 01:00:37;;;;;;;60.17;23.45;;;5.10;99.90;;;;;;5084151;28;20019;-64
2021/03/24 01:03:04;;;;;;;53.85;21.98;;;5.20;99.90;;;;;;5074547;28;20040;-64
2021/03/24 01:05:29;;;;;;;56.45;21.13;;;5.20;99.90;;;;;;5085715;28;20487;-64
2021/03/24 01:08:08;;;;;;;58.22;22.50;;;5.30;99.90;;;;;;5082003;28;20020;-64
2021/03/24 01:10:35;;;;;;;55.88;21.40;;;5.20;99.90;;;;;;5084649;28;20028;-64
2021/03/24 01:13:01;;;;;;;51.40;22.55;;;5.10;99.90;;;;;;5086954;28;20513;-64
2021/03/24 01:15:27;;;;;;;51.97;21.38;;;5.10;99.90;;;;;;5086726;28;20059;-64
2021/03/24 01:17:54;;;;;;;53.13;22.40;;;5.10;99.90;;;;;;5081026;28;20080;-64
2021/03/24 01:20:24;;;;;;;49.60;20.00;;;5.10;99.90;;;;;;5085006;28;20028;-64
2021/03/24 01:22:50;;;;;;;55.75;21.83;;;5.10;99.90;;;;;;5080996;28;20150;-64
2021/03/24 01:25:17;;;;;;;51.80;21.05;;;5.00;99.90;;;;;;5079920;28;20111;-64
2021/03/24 01:27:43;;;;;;;56.42;21.80;;;5.00;99.90;;;;;;5081280;28;20383;-64
2021/03/24 01:30:10;;;;;;;51.17;20.52;;;4.80;99.90;;;;;;5086099;28;20033;-64
2021/03/24 01:32:36;;;;;;;56.65;21.85;;;4.60;99.90;;;;;;5085722;28;20056;-64
2021/03/24 01:35:02;;;;;;;51.78;21.33;;;4.50;99.90;;;;;;5092355;28;20032;-64
2021/03/24 01:37:27;;;;;;;62.95;23.52;;;4.50;99.90;;;;;;5087174;28;20036;-64
2021/03/24 01:39:53;;;;;;;49.85;20.27;;;4.50;99.90;;;;;;5085393;28;20034;-64
2021/03/24 01:42:19;;;;;;;51.97;21.00;;;4.30;99.90;;;;;;5079799;28;20107;-64
2021/03/24 01:45:15;;;;;;;52.70;20.52;;;4.20;99.90;;;;;;5086649;28;20024;-64
2021/03/24 01:47:43;;;;;;;55.83;21.95;;;4.20;99.90;;;;;;5083321;28;20032;-65
2021/03/24 01:50:27;;;;;;;53.53;21.23;;;4.10;99.90;;;;;;5082542;28;20546;-64
2021/03/24 01:52:53;;;;;;;56.08;20.88;;;4.10;99.90;;;;;;5086145;28;20050;-64
2021/03/24 01:55:19;;;;;;;51.05;21.08;;;4.30;99.90;;;;;;5076427;28;20047;-63
2021/03/24 01:57:45;;;;;;;52.72;20.30;;;4.20;99.90;;;;;;5085982;28;20036;-63
2021/03/24 02:00:20;;;;;;;49.63;21.13;;;4.30;99.90;;;;;;5086616;28;20039;-63
2021/03/24 02:02:46;;;;;;;53.00;21.02;;;4.20;99.90;;;;;;5086018;28;20036;-63
2021/03/24 02:05:12;;;;;;;52.25;22.00;;;4.40;99.90;;;;;;5083648;28;20498;-64
2021/03/24 02:07:50;;;;;;;54.25;20.13;;;4.50;99.90;;;;;;5085294;28;20032;-63
2021/03/24 02:10:31;;;;;;;43.05;18.13;;;4.60;99.90;;;;;;5085332;28;20020;-63
2021/03/24 02:13:07;;;;;;;49.28;17.33;;;4.80;99.90;;;;;;5085712;28;20031;-63
2021/03/24 02:15:39;;;;;;;47.35;18.88;;;4.90;99.90;;;;;;5086681;28;20036;-63
2021/03/24 02:18:06;;;;;;;48.75;19.17;;;4.90;99.90;;;;;;5082417;28;20036;-63
2021/03/24 02:20:37;;;;;;;46.95;18.73;;;4.80;99.90;;;;;;5084804;28;20040;-64
2021/03/24 02:23:26;;;;;;;;;;;4.60;99.90;;;;;;5085574;28;20036;-63
2021/03/24 02:25:59;;;;;;;46.25;18.50;;;4.60;99.90;;;;;;5075879;28;19915;-63
2021/03/24 02:28:25;;;;;;;49.08;17.58;;;4.70;99.90;;;;;;5086195;28;20028;-63
2021/03/24 02:30:52;;;;;;;47.97;18.17;;;4.80;99.90;;;;;;5094731;28;20050;-63
2021/03/24 02:33:32;;;;;;;49.42;18.50;;;4.80;99.90;;;;;;5084026;28;20051;-63
2021/03/24 02:36:05;;;;;;;49.75;19.55;;;4.90;99.90;;;;;;5082187;28;20034;-64
2021/03/24 02:38:33;;;;;;;43.75;18.65;;;5.00;99.90;;;;;;5089129;28;20036;-63
2021/03/24 02:41:01;;;;;;;47.08;17.58;;;4.90;99.90;;;;;;5088263;28;20032;-63
2021/03/24 02:43:28;;;;;;;48.75;18.65;;;5.00;99.90;;;;;;5077135;28;20073;-63
2021/03/24 02:45:55;;;;;;;43.50;17.42;;;5.00;99.90;;;;;;5086782;28;20420;-63
2021/03/24 02:48:27;;;;;;;45.25;18.23;;;5.00;99.90;;;;;;5089558;28;20055;-63
2021/03/24 02:50:55;;;;;;;44.58;18.42;;;5.00;99.90;;;;;;5077894;28;20101;-63
2021/03/24 02:53:22;;;;;;;44.83;18.17;;;4.80;99.90;;;;;;5084550;28;20121;-62
2021/03/24 02:55:49;;;;;;;46.92;18.08;;;4.90;99.90;;;;;;5086429;28;20016;-63
2021/03/24 02:58:14;;;;;;;41.22;16.63;;;4.90;99.90;;;;;;5099927;28;20051;-63
2021/03/24 03:00:40;;;;;;;39.65;16.95;;;4.80;99.90;;;;;;5088393;28;20734;-63
2021/03/24 03:03:22;;;;;;;44.13;17.48;;;4.90;99.90;;;;;;5089888;28;20024;-63
2021/03/24 03:05:49;;;;;;;46.10;17.55;;;4.80;99.90;;;;;;5090166;28;20008;-62
2021/03/24 03:08:23;;;;;;;41.55;16.35;;;4.70;99.90;;;;;;5085349;28;20039;-65
2021/03/24 03:10:58;;;;;;;42.85;17.63;;;4.80;99.90;;;;;;5077504;28;20031;-63
2021/03/24 03:13:30;;;;;;;43.63;17.05;;;4.80;99.90;;;;;;5080214;28;20035;-63
2021/03/24 03:16:17;;;;;;;40.40;16.65;;;4.80;99.90;;;;;;5087874;28;20024;-63
2021/03/24 03:18:54;;;;;;;39.88;16.27;;;4.70;99.90;;;;;;5072777;28;20120;-63
2021/03/24 03:21:27;;;;;;;38.90;15.82;;;4.70;99.90;;;;;;5071553;28;20571;-65
2021/03/24 03:23:55;;;;;;;38.08;15.57;;;4.80;99.90;;;;;;5068947;28;20123;-65
2021/03/24 03:26:22;;;;;;;42.30;17.02;;;4.80;99.90;;;;;;5089540;28;20027;-62
2021/03/24 03:28:56;;;;;;;42.92;17.13;;;4.70;99.90;;;;;;5091977;28;20046;-63
2021/03/24 03:31:27;;;;;;;49.08;17.58;;;4.50;99.90;;;;;;5101495;28;20028;-63
2021/03/24 03:33:54;;;;;;;45.30;18.15;;;4.70;99.90;;;;;;5084443;28;20071;-63
2021/03/24 03:36:22;;;;;;;45.72;17.50;;;4.70;99.90;;;;;;5082294;28;20038;-63
2021/03/24 03:38:49;;;;;;;45.15;17.02;;;4.60;99.90;;;;;;5090621;28;20024;-65
2021/03/24 03:41:16;;;;;;;47.25;18.45;;;4.70;99.90;;;;;;5092862;28;20455;-65
2021/03/24 03:43:45;;;;;;;38.55;16.08;;;4.70;99.90;;;;;;5088231;28;20031;-65
2021/03/24 03:46:19;;;;;;;49.42;17.95;;;4.60;99.90;;;;;;5084646;28;20028;-65
2021/03/24 03:48:47;;;;;;;44.90;16.20;;;4.60;99.90;;;;;;5091229;28;20031;-63
2021/03/24 03:51:27;;;;;;;38.38;15.05;;;4.60;99.90;;;;;;5057918;28;20095;-66
2021/03/24 03:54:11;;;;;;;42.55;17.13;;;4.60;99.90;;;;;;5090679;28;20036;-64
2021/03/24 03:56:59;;;;;;;36.40;13.10;;;4.60;99.90;;;;;;5087069;28;21082;-64
2021/03/24 03:59:52;;;;;;;38.45;16.23;;;4.70;99.90;;;;;;5090620;28;20046;-64
2021/03/24 04:02:24;;;;;;;39.42;15.18;;;4.70;99.90;;;;;;5089698;28;20040;-64
2021/03/24 04:04:59;;;;;;;37.08;12.55;;;4.70;99.90;;;;;;5081043;28;20037;-64
2021/03/24 04:07:27;;;;;;;44.60;17.05;;;4.80;99.90;;;;;;5089828;28;20039;-64
2021/03/24 04:09:56;;;;;;;37.17;15.23;;;4.70;99.90;;;;;;5083212;28;20099;-63
2021/03/24 04:12:25;;;;;;;35.55;15.48;;;4.70;99.90;;;;;;5084203;28;20036;-64
2021/03/24 04:14:51;;;;;;;45.15;17.02;;;4.70;99.90;;;;;;5097012;28;20445;-63
2021/03/24 04:17:33;;;;;;;43.75;16.48;;;4.70;99.90;;;;;;5073881;28;20028;-64
2021/03/24 04:20:02;;;;;;;44.40;17.20;;;4.60;99.90;;;;;;5082302;28;20024;-64
2021/03/24 04:22:31;;;;;;;47.45;17.60;;;4.50;99.90;;;;;;5079810;28;20622;-64
2021/03/24 04:24:58;;;;;;;38.90;16.20;;;4.40;99.90;;;;;;5078502;28;20478;-64
2021/03/24 04:27:30;;;;;;;38.97;15.60;;;4.40;99.90;;;;;;5089979;28;20269;-64
2021/03/24 04:30:12;;;;;;;49.10;18.15;;;4.30;99.90;;;;;;5090128;28;20084;-64
2021/03/24 04:32:38;;;;;;;38.78;15.10;;;4.20;99.90;;;;;;5063718;28;20151;-64
2021/03/24 04:35:06;;;;;;;40.63;16.90;;;4.20;99.90;;;;;;5082215;28;20103;-64
2021/03/24 04:37:44;;;;;;;41.10;16.20;;;4.20;99.90;;;;;;5078837;28;20120;-64
2021/03/24 04:40:31;;;;;;;46.67;16.58;;;4.20;99.90;;;;;;5089362;28;20031;-63
2021/03/24 04:42:56;;;;;;;44.03;18.30;;;4.20;99.90;;;;;;5088225;28;20097;-64
2021/03/24 04:45:30;;;;;;;44.38;16.58;;;4.20;99.90;;;;;;5080444;28;20360;-64
2021/03/24 04:47:59;;;;;;;45.55;17.48;;;4.20;99.90;;;;;;5083966;28;20021;-64
2021/03/24 04:50:28;;;;;;;40.30;16.85;;;4.10;99.90;;;;;;5086720;28;20594;-64
2021/03/24 04:52:58;;;;;;;43.28;17.35;;;3.90;99.90;;;;;;5089892;28;20050;-63
2021/03/24 04:55:25;;;;;;;45.53;17.70;;;4.00;99.90;;;;;;5066410;28;20063;-63
2021/03/24 04:57:57;;;;;;;46.42;17.00;;;4.10;99.90;;;;;;5098880;28;20047;-63
2021/03/24 05:00:51;;;;;;;42.03;16.67;;;4.10;99.90;;;;;;5074769;28;20016;-63
2021/03/24 05:03:22;;;;;;;49.22;17.83;;;4.00;99.90;;;;;;5081758;28;20024;-63
2021/03/24 05:05:52;;;;;;;46.13;18.27;;;4.10;99.90;;;;;;5077347;28;20463;-63
2021/03/24 05:08:31;;;;;;;49.13;17.02;;;4.00;99.90;;;;;;5083329;28;20103;-64
2021/03/24 05:11:02;;;;;;;47.40;18.10;;;3.80;99.90;;;;;;5085643;28;20020;-63
2021/03/24 05:13:33;;;;;;;45.92;17.60;;;3.90;99.90;;;;;;5078747;28;20028;-66
2021/03/24 05:16:38;;;;;;;46.28;17.08;;;4.00;99.90;;;;;;5087961;28;20035;-63
2021/03/24 05:19:04;;;;;;;42.97;16.60;;;3.90;99.90;;;;;;5072010;28;20074;-63
2021/03/24 05:21:59;;;;;;;46.75;18.73;;;3.80;99.90;;;;;;5091224;28;20024;-63
2021/03/24 05:24:31;;;;;;;40.38;16.25;;;3.80;99.90;;;;;;5062835;28;20111;-65
2021/03/24 05:27:11;;;;;;;45.17;16.85;;;3.70;99.90;;;;;;5089302;28;20081;-65
2021/03/24 05:29:41;;;;;;;45.33;18.00;;;3.50;99.90;;;;;;5089387;28;20465;-64
2021/03/24 05:32:14;;;;;;;47.70;17.63;;;3.30;99.90;;;;;;5079790;28;20496;-64
2021/03/24 05:34:41;;;;;;;41.25;16.63;;;3.40;99.90;;;;;;5083593;28;20055;-64
2021/03/24 05:37:09;;;;;;;47.50;16.25;;;3.80;99.90;;;;;;5071159;28;20074;-64
2021/03/24 05:39:41;;;;;;;40.78;14.18;;;4.00;99.90;;;;;;5079161;28;20081;-67
2021/03/24 05:42:44;;;;;;;45.75;17.10;;;4.30;99.90;;;;;;5075561;28;20028;-66
2021/03/24 05:45:16;;;;;;;44.67;15.98;;;4.40;99.90;;;;;;5078006;28;20114;-64
2021/03/24 05:48:06;;;;;;;47.92;16.67;;;4.40;99.90;;;;;;5077446;28;20077;-65
2021/03/24 05:50:46;;;;;;;45.28;16.75;;;4.40;99.90;;;;;;5081090;28;20490;-65
2021/03/24 05:53:36;;;;;;;44.67;17.63;;;4.40;99.90;;;;;;5075391;28;20505;-66
2021/03/24 05:56:08;;;;;;;;;;;4.30;99.90;;;;;;5079840;28;20219;-65
2021/03/24 05:58:47;;;;;;;48.63;18.77;;;4.20;99.90;;;;;;5081485;28;19904;-65
2021/03/24 06:01:32;;;;;;;51.33;18.17;;;4.10;99.90;;;;;;5073877;28;20024;-65
2021/03/24 06:04:20;;;;;;;47.78;18.63;;;4.10;99.90;;;;;;5058530;28;20024;-65
2021/03/24 06:07:24;;;;;;;47.42;18.38;;;4.10;99.90;;;;;;5077549;28;20379;-64
2021/03/24 06:10:07;;;;;;;51.70;18.17;;;4.00;99.90;;;;;;5080713;28;20433;-64
2021/03/24 06:12:51;;;;;;;53.13;17.50;;;4.10;99.90;;;;;;5069848;28;20025;-64
2021/03/24 06:15:49;;;;;;;42.97;17.25;;;4.10;99.90;;;;;;5070977;28;20612;-64
2021/03/24 06:18:55;;;;;;;47.90;17.15;;;4.10;99.90;;;;;;5062912;28;20483;-64
2021/03/24 06:21:26;;;;;;;38.92;15.30;;;4.30;99.90;;;;;;5085947;28;20033;-65
2021/03/24 06:24:21;;;;;;;46.10;17.33;;;4.60;99.90;;;;;;5073248;28;20055;-66
2021/03/24 06:26:52;;;;;;;45.75;17.52;;;4.70;99.90;;;;;;5074516;28;20459;-64
2021/03/24 06:29:50;;;;;;;44.60;15.52;;;4.90;99.90;;;;;;5067918;28;20023;-64
2021/03/24 06:32:21;;;;;;;30.73;12.85;;;5.20;99.90;;;;;;5038550;28;20083;-64
2021/03/24 06:35:09;;;;;;;37.83;15.50;;;5.30;99.90;;;;;;5076474;28;20033;-64
2021/03/24 06:38:05;;;;;;;44.92;14.95;;;5.30;99.90;;;;;;5084175;28;20115;-64
2021/03/24 06:40:56;;;;;;;35.75;12.38;;;5.40;99.90;;;;;;5087687;28;20024;-64
2021/03/24 06:43:59;;;;;;;40.15;15.10;;;5.50;99.90;;;;;;5074101;28;20157;-65
2021/03/24 06:46:45;;;;;;;46.47;16.02;;;5.60;99.90;;;;;;5081082;28;20086;-64
2021/03/24 06:49:42;;;;;;;40.13;15.43;;;5.60;99.90;;;;;;5072022;28;20025;-64
2021/03/24 06:52:46;;;;;;;40.88;16.00;;;5.70;99.90;;;;;;5053156;28;20044;-65
2021/03/24 06:55:45;;;;;;;35.55;12.30;;;5.80;99.90;;;;;;5049984;28;20172;-65
2021/03/24 06:59:04;;;;;;;38.97;16.05;;;5.80;99.90;;;;;;5076865;28;20121;-66
2021/03/24 07:01:56;;;;;;;40.58;16.13;;;5.90;99.90;;;;;;4996733;28;20064;-64
2021/03/24 07:04:52;;;;;;;36.53;14.02;;;6.00;99.90;;;;;;5071908;28;20033;-65
2021/03/24 07:07:39;;;;;;;37.00;13.82;;;6.10;99.90;;;;;;5076046;28;20025;-64
2021/03/24 07:10:26;;;;;;;38.50;16.10;;;6.20;99.90;;;;;;5057337;28;20020;-64
2021/03/24 07:13:29;;;;;;;39.42;14.38;;;6.30;99.90;;;;;;5076205;28;20132;-64
2021/03/24 07:15:56;;;;;;;40.70;16.00;;;6.40;99.90;;;;;;5072078;28;20035;-63
2021/03/24 07:18:39;;;;;;;44.10;16.83;;;6.50;99.90;;;;;;5078363;28;20589;-63
2021/03/24 07:21:49;;;;;;;36.55;14.90;;;6.60;99.90;;;;;;5072522;28;20064;-64
2021/03/24 07:24:37;;;;;;;35.42;14.10;;;6.70;99.90;;;;;;5081011;28;20025;-64
2021/03/24 07:27:24;;;;;;;42.42;15.98;;;6.80;99.90;;;;;;5078006;28;20020;-64
2021/03/24 07:30:13;;;;;;;38.25;15.45;;;6.90;99.90;;;;;;5077693;28;20486;-63
2021/03/24 07:32:46;;;;;;;40.28;16.15;;;7.10;99.90;;;;;;5081461;28;20044;-64
2021/03/24 07:35:34;;;;;;;33.72;13.43;;;7.20;99.90;;;;;;5053379;28;20024;-63
2021/03/24 07:38:46;;;;;;;32.90;13.25;;;7.30;99.90;;;;;;5073672;28;20380;-63
2021/03/24 07:41:52;;;;;;;36.30;13.60;;;7.40;99.90;;;;;;5084573;28;20047;-64
2021/03/24 07:44:23;;;;;;;37.33;15.50;;;7.50;99.90;;;;;;5087585;28;20059;-62
2021/03/24 07:47:18;;;;;;;39.30;14.38;;;7.60;99.90;;;;;;5085609;28;20664;-63
2021/03/24 07:50:16;;;;;;;36.25;15.38;;;7.70;99.90;;;;;;5080927;28;20048;-63
2021/03/24 07:53:22;;;;;;;39.25;15.15;;;7.80;99.90;;;;;;5080628;28;20403;-63
2021/03/24 07:55:59;;;;;;;33.58;12.02;;;7.90;99.90;;;;;;5037685;28;20060;-63
2021/03/24 07:59:02;;;;;;;41.10;15.30;;;8.00;99.90;;;;;;5086386;28;20093;-63
2021/03/24 08:01:33;;;;;;;31.55;13.32;;;8.10;99.90;;;;;;5068223;28;20047;-65
2021/03/24 08:04:29;;;;;;;34.67;12.48;;;8.20;99.90;;;;;;5084128;28;20024;-62
2021/03/24 08:07:33;;;;;;;40.03;14.43;;;8.40;99.90;;;;;;5083212;28;20054;-62
2021/03/24 08:10:23;;;;;;;38.78;16.45;;;8.40;99.90;;;;;;5070156;28;20024;-64
2021/03/24 08:13:09;;;;;;;43.65;16.52;;;8.70;99.90;;;;;;5082321;28;20036;-65
2021/03/24 08:16:06;;;;;;;36.90;16.10;;;8.90;99.90;;;;;;5035285;28;20036;-65
2021/03/24 08:18:56;;;;;;;42.78;16.65;;;9.20;99.90;;;;;;5082269;28;20031;-65
2021/03/24 08:21:55;;;;;;;35.47;14.32;;;9.40;99.90;;;;;;5084156;28;20035;-65
2021/03/24 08:24:28;;;;;;;28.95;11.88;;;9.40;99.90;;;;;;5084104;28;20103;-65
2021/03/24 08:27:17;;;;;;;33.67;13.35;;;9.30;99.90;;;;;;5070903;28;20474;-65
2021/03/24 08:29:52;;;;;;;36.45;13.38;;;9.50;99.90;;;;;;5087702;28;20361;-64
2021/03/24 08:32:32;;;;;;;42.10;15.77;;;9.70;99.90;;;;;;5088145;28;20115;-63
2021/03/24 08:35:07;;;;;;;;;;;9.90;99.90;;;;;;5083284;28;20039;-66
2021/03/24 08:38:08;;;;;;;42.17;16.33;;;10.60;99.90;;;;;;5084008;28;20278;-63
2021/03/24 08:41:16;;;;;;;37.63;14.20;;;11.10;99.90;;;;;;5082653;28;20050;-66
2021/03/24 08:43:48;;;;;;;41.10;16.38;;;11.60;99.80;;;;;;5088308;28;20724;-66
2021/03/24 08:46:34;;;;;;;39.55;15.55;;;12.10;99.20;;;;;;5086991;28;20028;-64
2021/03/24 08:49:09;;;;;;;39.63;16.65;;;12.10;98.10;;;;;;5085630;28;20073;-64
2021/03/24 08:51:50;;;;;;;42.60;15.88;;;12.30;98.20;;;;;;5084718;28;20028;-64
2021/03/24 08:54:37;;;;;;;33.67;13.57;;;13.20;96.70;;;;;;5086432;28;20455;-64
2021/03/24 08:57:27;;;;;;;31.00;14.50;;;13.70;96.00;;;;;;5085305;28;20523;-64
2021/03/24 09:00:16;;;;;;;40.60;17.33;;;13.80;94.90;;;;;;5083494;28;20020;-64
2021/03/24 09:03:25;;;;;;;39.50;15.77;;;13.90;95.10;;;;;;5084947;28;20059;-64
2021/03/24 09:06:02;;;;;;;38.00;18.40;;;13.60;94.60;;;;;;5036519;28;20805;-64
2021/03/24 09:08:36;;;;;;;34.22;16.80;;;13.70;93.70;;;;;;5081139;28;20028;-64
2021/03/24 09:11:22;;;;;;;44.42;21.95;;;13.30;94.80;;;;;;5075747;28;20024;-64
2021/03/24 09:14:26;;;;;;;29.13;11.68;;;13.10;94.70;;;;;;5089068;28;20043;-64
2021/03/24 09:17:36;;;;;;;42.22;17.08;;;13.30;95.10;;;;;;5085958;28;20031;-66
2021/03/24 09:20:23;;;;;;;42.65;16.92;;;14.10;94.60;;;;;;5067732;28;20094;-66
2021/03/24 09:23:00;;;;;;;41.15;16.80;;;14.70;92.60;;;;;;5077595;28;20095;-66
2021/03/24 09:25:25;;;;;;;32.20;15.55;;;14.40;92.40;;;;;;5079538;28;20035;-67
2021/03/24 09:28:10;;;;;;;43.05;18.98;;;15.00;91.70;;;;;;5090767;28;20020;-66
2021/03/24 09:31:05;;;;;;;38.47;17.17;;;14.70;92.50;;;;;;5071194;28;20024;-66
2021/03/24 09:33:45;;;;;;;45.10;19.73;;;14.70;91.50;;;;;;5084945;28;20048;-64
2021/03/24 09:36:35;;;;;;;43.83;19.00;;;14.90;91.30;;;;;;5091966;28;20095;-64
2021/03/24 09:39:18;;;;;;;41.83;17.98;;;15.40;91.40;;;;;;5071164;28;20103;-65
2021/03/24 09:42:01;;;;;;;40.88;17.00;;;14.80;90.90;;;;;;5084543;28;20106;-64
2021/03/24 09:44:36;;;;;;;42.92;18.75;;;14.80;90.90;;;;;;5089920;28;20034;-65
2021/03/24 09:47:02;;;;;;;47.97;19.33;;;15.30;90.00;;;;;;5092908;28;20022;-65
2021/03/24 09:49:35;;;;;;;41.65;17.05;;;15.80;89.30;;;;;;5101842;28;20161;-65
2021/03/24 09:52:26;;;;;;;38.70;17.88;;;16.70;84.80;;;;;;5089200;28;21465;-65
2021/03/24 09:55:03;;;;;;;39.53;16.58;;;16.80;82.60;;;;;;5101478;28;20035;-65
2021/03/24 09:57:53;;;;;;;39.55;17.42;;;15.80;84.80;;;;;;5087828;28;20020;-65
2021/03/24 10:00:19;;;;;;;35.63;16.13;;;16.40;84.30;;;;;;5075016;28;20499;-65
2021/03/24 10:02:53;;;;;;;41.58;16.23;;;15.80;84.60;;;;;;5089130;28;20028;-65
2021/03/24 10:05:43;;;;;;;45.13;18.88;;;16.40;81.80;;;;;;5086935;28;20024;-64
2021/03/24 10:08:16;;;;;;;49.10;19.45;;;16.00;84.90;;;;;;5085049;28;20077;-65
2021/03/24 10:10:44;;;;;;;41.03;19.27;;;16.80;82.10;;;;;;5070186;28;20032;-65
2021/03/24 10:13:26;;;;;;;38.47;17.55;;;16.00;81.70;;;;;;5088979;28;20050;-65
2021/03/24 10:16:09;;;;;;;44.95;20.58;;;15.70;82.30;;;;;;5085275;28;20028;-65
2021/03/24 10:19:07;;;;;;;43.50;20.88;;;15.70;83.40;;;;;;5089789;28;20036;-64
2021/03/24 10:21:45;;;;;;;45.13;17.95;;;15.20;84.50;;;;;;5065281;28;20124;-65
2021/03/24 10:24:21;;;;;;;43.80;19.55;;;15.80;86.20;;;;;;5094632;28;20471;-65
2021/03/24 10:27:07;;;;;;;35.95;14.60;;;16.80;81.00;;;;;;5087871;28;20450;-66
2021/03/24 10:29:48;;;;;;;40.80;17.50;;;16.20;79.80;;;;;;5087311;28;20030;-65
2021/03/24 10:32:26;;;;;;;44.22;20.23;;;16.40;82.60;;;;;;5086783;28;20513;-65
2021/03/24 10:35:06;;;;;;;32.95;14.82;;;17.90;79.10;;;;;;5086566;28;20135;-66
2021/03/24 10:37:57;;;;;;;42.97;16.67;;;18.60;73.10;;;;;;5085866;28;20145;-65
2021/03/24 10:40:30;;;;;;;40.22;15.90;;;17.80;72.30;;;;;;5047426;28;20034;-65
2021/03/24 10:43:04;;;;;;;37.38;14.93;;;17.40;74.40;;;;;;5091398;28;20073;-65
2021/03/24 10:45:52;;;;;;;41.50;17.40;;;17.10;76.90;;;;;;5084841;28;20024;-66
2021/03/24 10:48:20;;;;;;;40.53;17.73;;;16.90;75.90;;;;;;5068401;28;20068;-66
2021/03/24 10:51:11;;;;;;;42.28;17.00;;;18.00;75.10;;;;;;5081064;28;20679;-65
2021/03/24 10:53:37;;;;;;;40.17;17.80;;;18.30;72.40;;;;;;5056689;28;20514;-66
2021/03/24 10:56:31;;;;;;;39.00;18.25;;;18.70;72.10;;;;;;5095406;28;20103;-66
2021/03/24 10:59:15;;;;;;;42.53;18.85;;;19.70;66.80;;;;;;5073010;28;20373;-66
2021/03/24 11:02:02;;;;;;;45.05;16.58;;;19.90;65.90;;;;;;5086264;28;20055;-66
2021/03/24 11:04:42;;;;;;;38.33;17.00;;;19.30;65.70;;;;;;5087599;28;20070;-66
2021/03/24 11:07:40;;;;;;;38.60;16.13;;;17.70;65.40;;;;;;5072550;28;20028;-66
2021/03/24 11:10:35;;;;;;;38.17;16.90;;;17.50;67.90;;;;;;5088848;28;20016;-66
2021/03/24 11:13:05;;;;;;;39.80;16.83;;;18.30;66.20;;;;;;5099849;28;20085;-66
2021/03/24 11:15:36;;;;;;;;;;;18.70;66.20;;;;;;5088126;28;20020;-65
2021/03/24 11:18:10;;;;;;;41.53;18.90;;;17.40;67.80;;;;;;5087428;28;19908;-66
2021/03/24 11:20:55;;;;;;;40.90;18.50;;;18.90;66.50;;;;;;5096576;28;20066;-66
2021/03/24 11:23:46;;;;;;;37.75;17.63;;;19.30;64.90;;;;;;5084056;28;20028;-66
2021/03/24 11:26:17;;;;;;;42.47;18.00;;;18.40;65.40;;;;;;5080634;28;20020;-66
2021/03/24 11:28:46;;;;;;;38.75;18.02;;;18.70;67.60;;;;;;5081547;28;20056;-66
2021/03/24 11:31:15;;;;;;;39.15;19.05;;;19.80;64.50;;;;;;5076805;28;20095;-66
2021/03/24 11:33:46;;;;;;;42.80;18.50;;;20.10;63.40;;;;;;5085218;28;20050;-66
2021/03/24 11:36:39;;;;;;;42.95;18.55;;;19.80;64.50;;;;;;5087343;28;20467;-66
2021/03/24 11:39:31;;;;;;;43.92;18.73;;;20.10;61.30;;;;;;5077060;28;20032;-66
2021/03/24 11:42:15;;;;;;;38.35;16.40;;;20.00;61.80;;;;;;5085482;28;20031;-66
2021/03/24 11:44:43;;;;;;;39.13;18.10;;;20.40;60.60;;;;;;5089396;28;20032;-66
2021/03/24 11:47:47;;;;;;;36.17;15.90;;;20.90;59.70;;;;;;5101661;28;20099;-66
2021/03/24 11:50:24;;;;;;;29.30;11.25;;;20.60;58.30;;;;;;5101475;28;20115;-65
2021/03/24 11:53:22;;;;;;;42.95;18.60;;;20.20;59.90;;;;;;5086710;28;20491;-65
2021/03/24 11:56:14;;;;;;;44.95;19.38;;;19.70;60.20;;;;;;5062850;28;20084;-65
2021/03/24 11:58:47;;;;;;;38.45;17.50;;;20.40;60.30;;;;;;5084098;28;20020;-65
2021/03/24 12:01:35;;;;;;;39.17;16.83;;;20.30;59.70;;;;;;5079012;28;20020;-65
2021/03/24 12:04:09;;;;;;;40.85;17.33;;;19.80;58.90;;;;;;5083700;28;20036;-65
2021/03/24 12:06:45;;;;;;;39.33;18.52;;;20.70;59.20;;;;;;5084053;28;20032;-65
2021/03/24 12:09:22;;;;;;;35.22;16.85;;;22.20;56.20;;;;;;5089293;28;20076;-65
2021/03/24 12:11:49;;;;;;;35.83;16.08;;;21.10;61.00;;;;;;5073780;28;20314;-65
2021/03/24 12:14:27;;;;;;;41.58;18.25;;;21.00;56.20;;;;;;5092849;28;20051;-65
2021/03/24 12:16:54;;;;;;;35.67;15.10;;;;;;;;;;5071251;28;20052;-65
2021/03/24 12:19:33;;;;;;;35.55;17.13;;;22.10;58.20;;;;;;5074020;28;20424;-65
2021/03/24 12:22:22;;;;;;;37.40;17.23;;;;;;;;;;5102602;28;20043;-65
2021/03/24 12:24:50;;;;;;;41.70;16.38;;;;;;;;;;5061129;28;20060;-65
2021/03/24 12:27:18;;;;;;;34.72;14.50;;;;;;;;;;5088935;28;20066;-65
2021/03/24 12:29:55;;;;;;;34.33;15.00;;;;;;;;;;5078915;28;20016;-65
2021/03/24 12:32:24;;;;;;;35.75;16.40;;;;;;;;;;5089555;28;20044;-65
2021/03/24 12:34:52;;;;;;;38.65;14.80;;;;;;;;;;5090195;28;20032;-65
2021/03/24 12:37:25;;;;;;;39.47;18.02;;;;;;;;;;5091141;28;20016;-66
2021/03/24 12:39:52;;;;;;;39.22;15.98;;;;;;;;;;5077802;28;20035;-65
2021/03/24 12:42:26;;;;;;;34.53;14.90;;;;;;;;;;5095809;28;20413;-66
2021/03/24 12:44:54;;;;;;;31.88;14.70;;;;;;;;;;5077025;28;20597;-66
2021/03/24 12:47:29;;;;;;;33.85;14.90;;;21.70;91.90;;;;;;5100097;28;20016;-65
2021/03/24 12:50:11;;;;;;;35.25;14.38;;;20.60;72.00;;;;;;5087460;28;20506;-65
2021/03/24 12:53:07;;;;;;;45.22;15.00;;;19.90;86.30;;;;;;5080896;28;20036;-65
2021/03/24 12:55:35;;;;;;;25.58;13.00;;;20.70;71.00;;;;;;5089138;28;20063;-65
2021/03/24 12:58:01;;;;;;;38.92;17.02;;;20.80;69.70;;;;;;5093121;28;20366;-65
2021/03/24 13:00:43;;;;;;;35.33;14.15;;;21.70;71.70;;;;;;5091699;28;20036;-65
2021/03/24 13:03:30;;;;;;;27.98;11.40;;;22.40;69.60;;;;;;5091265;28;20056;-66
2021/03/24 13:06:21;;;;;;;27.02;12.43;;;21.60;68.10;;;;;;5087120;28;20067;-65
2021/03/24 13:09:24;;;;;;;22.67;9.80;;;21.80;70.90;;;;;;5073909;28;20091;-65
2021/03/24 13:11:58;;;;;;;24.08;10.57;;;21.10;70.70;;;;;;5063620;28;20097;-65
2021/03/24 13:14:45;;;;;;;31.85;13.30;;;21.00;72.40;;;;;;5091781;28;20032;-65
2021/03/24 13:17:32;;;;;;;34.05;13.50;;;21.80;72.90;;;;;;5079243;28;20035;-65
2021/03/24 13:20:16;;;;;;;35.38;14.00;;;21.20;72.80;;;;;;5086410;28;20028;-65
2021/03/24 13:22:48;;;;;;;35.50;12.77;;;21.00;74.30;;;;;;5098472;28;20028;-65
2021/03/24 13:25:58;;;;;;;31.80;12.70;;;21.80;73.80;;;;;;5088563;28;20080;-65
2021/03/24 13:28:45;;;;;;;25.30;9.70;;;21.80;74.10;;;;;;5096349;28;20098;-65
2021/03/24 13:31:37;;;;;;;25.10;10.55;;;22.30;70.50;;;;;;5090194;28;20031;-65
2021/03/24 13:34:12;;;;;;;28.90;12.70;;;22.60;71.40;;;;;;5080689;28;20558;-65
2021/03/24 13:36:51;;;;;;;31.35;14.07;;;21.50;71.40;;;;;;5083863;28;20131;-65